createdAt,value
2019-01-11T00:02:06.520Z,100010.41
2019-01-11T00:04:35.566Z,100012.25
2019-01-11T00:07:04.669Z,100009.44
2019-01-11T00:09:33.740Z,100011.33
2019-01-11T00:12:02.790Z,100007.41
2019-01-11T00:14:31.909Z,100004.22
2019-01-11T00:17:01.022Z,100003.71
2019-01-11T00:19:30.095Z,100011.98
2019-01-11T00:22:01.333Z,100005.49
2019-01-11T00:24:30.426Z,100013.31
2019-01-11T00:26:59.589Z,100013.11
2019-01-11T00:29:28.879Z,100011.80
2019-01-11T00:31:57.966Z,100009.67
2019-01-11T00:34:27.226Z,100012.46
2019-01-11T00:36:56.435Z,100007.10
2019-01-11T00:39:27.947Z,100006.31
2019-01-11T00:41:57.082Z,100001.59
2019-01-11T00:44:26.621Z,100010.84
2019-01-11T00:46:56.631Z,100014.44
2019-01-11T00:49:25.696Z,100012.47
2019-01-11T00:51:54.792Z,100018.99
2019-01-11T00:54:23.840Z,100015.95
2019-01-11T00:56:52.974Z,100025.57
2019-01-11T00:59:22.067Z,100016.81
2019-01-11T01:01:51.096Z,100010.53
2019-01-11T01:04:20.155Z,100019.57
2019-01-11T01:06:49.283Z,100017.63
2019-01-11T01:09:18.332Z,100015.08
2019-01-11T01:11:47.384Z,100022.12
2019-01-11T01:14:16.481Z,100018.13
2019-01-11T01:16:45.556Z,100027.48
2019-01-11T01:19:20.133Z,100032.62
2019-01-11T01:21:49.172Z,100026.43
2019-01-11T01:24:18.218Z,100033.05
2019-01-11T01:26:49.640Z,100028.69
2019-01-11T01:29:20.221Z,100026.78
2019-01-11T01:31:50.767Z,100027.64
2019-01-11T01:34:19.809Z,100033.09
2019-01-11T01:36:48.944Z,100032.45
2019-01-11T01:39:17.993Z,100027.44
2019-01-11T01:41:47.079Z,100027.22
2019-01-11T01:44:16.106Z,100032.83
2019-01-11T01:46:45.255Z,100028.22
2019-01-11T01:49:14.433Z,100028.66
2019-01-11T01:51:44.647Z,100026.09
2019-01-11T01:54:13.750Z,100023.52
2019-01-11T01:56:42.843Z,100023.69
2019-01-11T01:59:11.981Z,100025.91
2019-01-11T02:01:41.034Z,100018.81
2019-01-11T02:04:11.158Z,99990.16
2019-01-11T02:06:44.579Z,100019.67
2019-01-11T02:09:13.642Z,100004.84
2019-01-11T02:11:44.002Z,100001.43
2019-01-11T02:14:13.173Z,99997.51
2019-01-11T02:16:42.273Z,100009.06
2019-01-11T02:19:11.295Z,100004.66
2019-01-11T02:21:47.927Z,99999.44
2019-01-11T02:24:17.070Z,99994.39
2019-01-11T02:26:46.135Z,99990.73
2019-01-11T02:29:15.190Z,99998.96
2019-01-11T02:31:44.286Z,100001.35
2019-01-11T02:34:13.349Z,99992.63
2019-01-11T02:36:45.003Z,99985.57
2019-01-11T02:39:14.055Z,99996.61
2019-01-11T02:41:43.051Z,99998.94
2019-01-11T02:44:12.099Z,100007.89
2019-01-11T02:46:41.135Z,100004.45
2019-01-11T02:49:10.270Z,100002.36
2019-01-11T02:51:39.498Z,99999.78
2019-01-11T02:54:09.555Z,100000.17
2019-01-11T02:56:38.670Z,99994.65
2019-01-11T02:59:07.703Z,99988.49
2019-01-11T03:01:36.762Z,99984.23
2019-01-11T03:04:05.800Z,99987.13
2019-01-11T03:06:34.835Z,99992.64
2019-01-11T03:09:05.097Z,99997.05
2019-01-11T03:11:34.160Z,99998.59
2019-01-11T03:14:03.193Z,99992.69
2019-01-11T03:16:32.190Z,99981.84
2019-01-11T03:19:02.130Z,99979.39
2019-01-11T03:21:31.377Z,99991.72
2019-01-11T03:24:02.755Z,99990.19
2019-01-11T03:26:31.753Z,99986.14
2019-01-11T03:29:00.799Z,99985.23
2019-01-11T03:31:35.417Z,99980.23
2019-01-11T03:34:04.731Z,99988.73
2019-01-11T03:36:33.749Z,99981.88
2019-01-11T03:39:04.105Z,99978.12
2019-01-11T03:41:35.936Z,99971.63
2019-01-11T03:44:04.974Z,99974.40
2019-01-11T03:46:33.994Z,99973.32
2019-01-11T03:49:03.012Z,99977.91
2019-01-11T03:51:32.038Z,99973.55
2019-01-11T03:54:01.126Z,99972.11
2019-01-11T03:56:30.220Z,99963.52
2019-01-11T03:58:59.257Z,99972.80
2019-01-11T04:01:28.304Z,99977.50
2019-01-11T04:03:57.334Z,99975.81
2019-01-11T04:06:26.479Z,99973.54
2019-01-11T04:08:55.559Z,99968.45
2019-01-11T04:11:25.857Z,99967.34
2019-01-11T04:13:54.973Z,99971.20
2019-01-11T04:16:24.183Z,99974.19
2019-01-11T04:19:00.259Z,99981.90
2019-01-11T04:21:29.454Z,99976.19
2019-01-11T04:23:58.493Z,99968.69
2019-01-11T04:26:27.522Z,99975.18
2019-01-11T04:28:56.591Z,99965.47
2019-01-11T04:31:25.702Z,99965.61
2019-01-11T04:33:54.859Z,99966.58
2019-01-11T04:36:25.256Z,99962.55
2019-01-11T04:38:54.299Z,99970.74
2019-01-11T04:41:23.461Z,99960.02
2019-01-11T04:43:52.552Z,99966.43
2019-01-11T04:46:21.541Z,99969.89
2019-01-11T04:48:50.592Z,99971.89
2019-01-11T04:51:19.643Z,99967.22
2019-01-11T04:53:49.983Z,99960.09
2019-01-11T04:56:19.073Z,99963.89
2019-01-11T04:58:48.088Z,99966.20
2019-01-11T05:01:17.162Z,99972.28
2019-01-11T05:03:46.239Z,99967.96
2019-01-11T05:06:15.329Z,99968.98
2019-01-11T05:08:44.483Z,99972.44
2019-01-11T05:11:14.732Z,99966.23
2019-01-11T05:13:46.803Z,99973.62
2019-01-11T05:16:15.829Z,99969.63
2019-01-11T05:18:45.181Z,99970.09
2019-01-11T05:21:15.698Z,99955.34
2019-01-11T05:23:44.832Z,99957.72
2019-01-11T05:26:13.823Z,99963.29
2019-01-11T05:28:42.866Z,99954.04
2019-01-11T05:31:11.930Z,99953.52
2019-01-11T05:33:40.964Z,99949.39
2019-01-11T05:36:09.983Z,99953.53
2019-01-11T05:38:39.201Z,99953.66
2019-01-11T05:41:08.260Z,99967.09
2019-01-11T05:43:37.279Z,99967.73
2019-01-11T05:46:06.370Z,99963.87
2019-01-11T05:48:35.391Z,99963.70
2019-01-11T05:51:07.357Z,99966.14
2019-01-11T05:53:36.362Z,99954.97
2019-01-11T05:56:12.798Z,99955.11
2019-01-11T05:58:49.929Z,99962.72
2019-01-11T06:01:19.992Z,99958.64
2019-01-11T06:03:49.171Z,99963.94
2019-01-11T06:06:19.260Z,99959.77
2019-01-11T06:08:50.747Z,99963.09
2019-01-11T06:11:20.864Z,99959.86
2019-01-11T06:13:50.419Z,99957.96
2019-01-11T06:16:19.483Z,99958.82
2019-01-11T06:18:48.587Z,99957.11
2019-01-11T06:21:17.602Z,99959.99
2019-01-11T06:23:47.198Z,99955.94
2019-01-11T06:26:16.811Z,99964.09
2019-01-11T06:28:45.963Z,99962.84
2019-01-11T06:31:15.036Z,99962.16
2019-01-11T06:33:44.123Z,99965.70
2019-01-11T06:36:13.544Z,99966.38
2019-01-11T06:38:44.070Z,99969.10
2019-01-11T06:41:14.348Z,99968.02
2019-01-11T06:43:44.916Z,99968.13
2019-01-11T06:46:15.893Z,99964.63
2019-01-11T06:48:45.401Z,99964.56
2019-01-11T06:51:16.171Z,99969.53
2019-01-11T06:53:46.020Z,99968.52
2019-01-11T06:56:16.639Z,99970.00
2019-01-11T06:58:46.748Z,99975.18
2019-01-11T07:01:17.093Z,99971.08
2019-01-11T07:03:46.225Z,99966.38
2019-01-11T07:06:15.841Z,99955.01
2019-01-11T07:08:45.631Z,99958.01
2019-01-11T07:11:14.865Z,99948.98
2019-01-11T07:13:44.131Z,99953.60
2019-01-11T07:16:13.880Z,99947.23
2019-01-11T07:18:42.900Z,99947.08
2019-01-11T07:21:12.104Z,99951.70
2019-01-11T07:23:41.218Z,99948.42
2019-01-11T07:26:10.421Z,99956.77
2019-01-11T07:28:40.042Z,99958.86
2019-01-11T07:31:11.950Z,99955.16
2019-01-11T07:33:40.994Z,99958.48
2019-01-11T07:36:29.454Z,99949.69
2019-01-11T07:38:58.583Z,99953.71
2019-01-11T07:41:28.993Z,99954.05
2019-01-11T07:43:58.055Z,99950.27
2019-01-11T07:46:28.260Z,99955.16
2019-01-11T07:48:57.424Z,99951.67
2019-01-11T07:51:27.448Z,99952.49
2019-01-11T07:53:58.559Z,99957.45
2019-01-11T07:56:27.637Z,99950.55
2019-01-11T07:58:57.072Z,99948.37
2019-01-11T08:01:26.765Z,99944.94
2019-01-11T08:03:57.025Z,99949.74
2019-01-11T08:06:26.606Z,99950.55
2019-01-11T08:08:56.201Z,99954.97
2019-01-11T08:11:25.628Z,99951.73
2019-01-11T08:13:54.832Z,99952.25
2019-01-11T08:16:24.039Z,99947.45
2019-01-11T08:18:53.727Z,99945.04
2019-01-11T08:21:23.053Z,99946.93
2019-01-11T08:23:52.111Z,99945.20
2019-01-11T08:26:21.144Z,99947.14
2019-01-11T08:28:50.320Z,99939.13
2019-01-11T08:31:19.502Z,99943.78
2019-01-11T08:33:48.640Z,99956.83
2019-01-11T08:36:17.799Z,99952.00
2019-01-11T08:38:49.915Z,99950.81
2019-01-11T08:41:19.054Z,99950.16
2019-01-11T08:43:48.264Z,99952.40
2019-01-11T08:46:17.336Z,99954.13
2019-01-11T08:48:46.393Z,99954.29
2019-01-11T08:51:17.555Z,99956.61
2019-01-11T08:53:46.556Z,99952.23
2019-01-11T08:56:16.107Z,99953.44
2019-01-11T08:58:46.232Z,99948.28
2019-01-11T09:01:15.283Z,99950.12
2019-01-11T09:03:44.354Z,99943.16
2019-01-11T09:06:13.388Z,99943.47
2019-01-11T09:08:42.523Z,99942.55
2019-01-11T09:11:11.696Z,99943.83
2019-01-11T09:13:45.034Z,99828.22
2019-01-11T09:16:20.598Z,99940.87
2019-01-11T09:18:52.296Z,99941.55
2019-01-11T09:21:22.718Z,99942.02
2019-01-11T09:23:51.787Z,99941.73
2019-01-11T09:26:20.971Z,99947.78
2019-01-11T09:28:50.088Z,99939.47
2019-01-11T09:31:20.086Z,99940.43
2019-01-11T09:33:49.218Z,99941.38
2019-01-11T09:36:18.459Z,99937.24
2019-01-11T09:38:47.526Z,99938.63
2019-01-11T09:41:16.580Z,99946.24
2019-01-11T09:43:45.733Z,99947.74
2019-01-11T09:46:15.882Z,99938.00
2019-01-11T09:48:48.277Z,99942.74
2019-01-11T09:51:17.378Z,99940.71
2019-01-11T09:53:49.314Z,99933.28
2019-01-11T09:56:18.364Z,99935.34
2019-01-11T09:58:47.464Z,99939.94
2019-01-11T10:01:16.609Z,99937.37
2019-01-11T10:03:45.672Z,99937.55
2019-01-11T10:06:14.700Z,99939.58
2019-01-11T10:08:44.138Z,99929.02
2019-01-11T10:11:13.614Z,99929.33
2019-01-11T10:13:42.743Z,99941.12
2019-01-11T10:16:11.806Z,99945.97
2019-01-11T10:18:40.984Z,99943.16
2019-01-11T10:21:10.004Z,99939.27
2019-01-11T10:23:39.064Z,99942.88
2019-01-11T10:26:08.200Z,99936.91
2019-01-11T10:28:39.561Z,99942.27
2019-01-11T10:31:08.599Z,99946.68
2019-01-11T10:33:40.670Z,99949.31
2019-01-11T10:36:11.049Z,99943.73
2019-01-11T10:38:41.326Z,99940.84
2019-01-11T10:41:12.639Z,99938.32
2019-01-11T10:43:41.712Z,99836.05
2019-01-11T10:46:29.866Z,99931.23
2019-01-11T10:48:59.028Z,99927.81
2019-01-11T10:51:32.019Z,99925.13
2019-01-11T10:54:01.130Z,99918.25
2019-01-11T10:56:30.329Z,99920.06
2019-01-11T10:58:59.370Z,99920.43
2019-01-11T11:01:28.522Z,99924.09
2019-01-11T11:03:57.569Z,99917.09
2019-01-11T11:06:28.610Z,99914.98
2019-01-11T11:08:57.782Z,99915.39
2019-01-11T11:11:26.989Z,99910.55
2019-01-11T11:13:56.053Z,99909.23
2019-01-11T11:16:25.208Z,99903.52
2019-01-11T11:18:54.314Z,99904.38
2019-01-11T11:21:23.757Z,99901.23
2019-01-11T11:23:54.175Z,99898.82
2019-01-11T11:26:25.341Z,99899.21
2019-01-11T11:28:54.486Z,99901.17
2019-01-11T11:31:23.670Z,99902.23
2019-01-11T11:33:54.222Z,99899.69
2019-01-11T11:36:23.540Z,99888.13
2019-01-11T11:38:52.992Z,99882.23
2019-01-11T11:41:22.301Z,99871.20
2019-01-11T11:43:51.431Z,99871.58
2019-01-11T11:46:20.924Z,99872.13
2019-01-11T11:48:50.133Z,99866.95
2019-01-11T11:51:19.214Z,99865.22
2019-01-11T11:53:48.270Z,99863.66
2019-01-11T11:56:17.484Z,99868.52
2019-01-11T11:58:46.647Z,99864.75
2019-01-11T12:01:15.826Z,99868.02
2019-01-11T12:03:45.229Z,99866.34
2019-01-11T12:06:14.859Z,99860.59
2019-01-11T12:08:44.908Z,99857.45
2019-01-11T12:11:15.496Z,99854.36
2019-01-11T12:13:44.885Z,99847.25
2019-01-11T12:16:14.404Z,99838.47
2019-01-11T12:18:44.534Z,99842.23
2019-01-11T12:21:16.290Z,99841.87
2019-01-11T12:23:45.804Z,99843.58
2019-01-11T12:26:16.084Z,99843.86
2019-01-11T12:28:47.112Z,99840.42
2019-01-11T12:31:16.275Z,99830.08
2019-01-11T12:33:45.493Z,99833.41
2019-01-11T12:36:15.224Z,99835.49
2019-01-11T12:38:46.112Z,99830.11
2019-01-11T12:41:15.804Z,99831.53
2019-01-11T12:43:44.990Z,99822.25
2019-01-11T12:46:14.607Z,99812.22
2019-01-11T12:48:43.753Z,99818.28
2019-01-11T12:51:12.892Z,99827.34
2019-01-11T12:53:41.984Z,99834.54
2019-01-11T12:56:11.086Z,99822.75
2019-01-11T12:58:40.262Z,99826.84
2019-01-11T13:01:09.449Z,99823.96
2019-01-11T13:03:38.712Z,99819.33
2019-01-11T13:06:08.070Z,99818.17
2019-01-11T13:08:37.265Z,99814.03
2019-01-11T13:11:06.706Z,99813.95
2019-01-11T13:13:36.496Z,99808.13
2019-01-11T13:16:10.674Z,99811.67
2019-01-11T13:18:41.257Z,99819.09
2019-01-11T13:21:10.311Z,99817.57
2019-01-11T13:23:39.609Z,99819.54
2019-01-11T13:26:11.421Z,99819.54
2019-01-11T13:28:40.591Z,99811.19
2019-01-11T13:31:10.881Z,99810.80
2019-01-11T13:33:40.393Z,99801.59
2019-01-11T13:36:18.278Z,99804.09
2019-01-11T13:38:47.413Z,99801.14
2019-01-11T13:41:16.557Z,99800.17
2019-01-11T13:43:51.039Z,99794.55
2019-01-11T13:46:21.657Z,99790.63
2019-01-11T13:48:51.830Z,99792.98
2019-01-11T13:51:24.009Z,99795.33
2019-01-11T13:53:53.187Z,99799.08
2019-01-11T13:56:22.304Z,99807.91
2019-01-11T13:58:51.498Z,99803.45
2019-01-11T14:01:20.648Z,99792.42
2019-01-11T14:03:49.740Z,99791.22
2019-01-11T14:06:20.865Z,99792.65
2019-01-11T14:08:50.177Z,99795.41
2019-01-11T14:11:20.539Z,99797.16
2019-01-11T14:13:49.910Z,99796.59
2019-01-11T14:16:20.548Z,99803.27
2019-01-11T14:18:49.999Z,99801.77
2019-01-11T14:21:20.293Z,99796.88
2019-01-11T14:23:49.629Z,99791.64
2019-01-11T14:26:21.098Z,99797.05
2019-01-11T14:28:50.239Z,99792.01
2019-01-11T14:31:19.272Z,99792.58
2019-01-11T14:33:48.333Z,99815.12
2019-01-11T14:36:17.976Z,99805.35
2019-01-11T14:38:47.052Z,99802.61
2019-01-11T14:41:16.660Z,99806.31
2019-01-11T14:43:46.928Z,99807.61
2019-01-11T14:46:17.362Z,99816.98
2019-01-11T14:48:46.511Z,99821.44
2019-01-11T14:51:15.612Z,99819.16
2019-01-11T14:53:44.742Z,99817.41
2019-01-11T14:56:13.813Z,99821.59
2019-01-11T14:58:42.776Z,99824.98
2019-01-11T15:01:11.918Z,99829.81
2019-01-11T15:03:41.153Z,99835.30
2019-01-11T15:06:10.257Z,99832.75
2019-01-11T15:08:39.459Z,99840.22
2019-01-11T15:11:10.279Z,99837.21
2019-01-11T15:13:39.326Z,99842.12
2019-01-11T15:16:08.363Z,99848.77
2019-01-11T15:18:37.423Z,99845.34
2019-01-11T15:21:06.903Z,99841.09
2019-01-11T15:23:35.893Z,99845.78
2019-01-11T15:26:04.996Z,99842.56
2019-01-11T15:28:34.045Z,99834.66
2019-01-11T15:31:03.196Z,99834.48
2019-01-11T15:33:32.752Z,99842.66
2019-01-11T15:36:01.879Z,99848.47
2019-01-11T15:38:32.782Z,99853.58
2019-01-11T15:41:01.883Z,99852.87
2019-01-11T15:43:30.961Z,99843.21
2019-01-11T15:46:05.732Z,99853.16
2019-01-11T15:48:48.968Z,99843.70
2019-01-11T15:51:20.780Z,99849.54
2019-01-11T15:53:49.870Z,99851.56
2019-01-11T15:56:28.404Z,99852.27
2019-01-11T15:58:57.576Z,99851.52
2019-01-11T16:01:27.971Z,99843.38
2019-01-11T16:03:57.004Z,99841.02
2019-01-11T16:06:33.843Z,99830.55
2019-01-11T16:10:01.147Z,99838.58
2019-01-11T16:12:33.677Z,99839.62
2019-01-11T16:15:43.507Z,99832.08
2019-01-11T16:18:28.204Z,99823.63
2019-01-11T16:20:57.276Z,99832.25
2019-01-11T16:23:26.329Z,99828.44
2019-01-11T16:25:56.661Z,99827.86
2019-01-11T16:28:26.983Z,99837.37
2019-01-11T16:30:55.993Z,99832.09
2019-01-11T16:33:25.786Z,99831.88
2019-01-11T16:35:54.954Z,99823.45
2019-01-11T16:38:24.298Z,99834.55
2019-01-11T16:40:53.703Z,99833.44
2019-01-11T16:43:22.732Z,99831.05
2019-01-11T16:45:52.257Z,99830.00
2019-01-11T16:48:21.563Z,99832.84
2019-01-11T16:50:52.315Z,99835.41
2019-01-11T16:53:21.842Z,99836.45
2019-01-11T16:55:51.156Z,99833.67
2019-01-11T16:58:21.168Z,99834.59
2019-01-11T17:00:50.608Z,99840.22
2019-01-11T17:03:19.831Z,99834.86
2019-01-11T17:05:48.989Z,99831.64
2019-01-11T17:08:18.230Z,99827.39
2019-01-11T17:10:47.453Z,99830.50
2019-01-11T17:13:17.643Z,99833.17
2019-01-11T17:15:46.775Z,99834.21
2019-01-11T17:18:16.299Z,99837.22
2019-01-11T17:20:45.867Z,99836.34
2019-01-11T17:23:15.632Z,99825.89
2019-01-11T17:25:45.220Z,99828.16
2019-01-11T17:28:14.374Z,99839.68
2019-01-11T17:30:43.586Z,99842.45
2019-01-11T17:33:12.610Z,99851.02
2019-01-11T17:35:41.606Z,99844.95
2019-01-11T17:38:10.691Z,99842.16
2019-01-11T17:40:39.667Z,99844.52
2019-01-11T17:43:08.709Z,99845.39
2019-01-11T17:45:37.992Z,99851.72
2019-01-11T17:48:07.052Z,99843.05
2019-01-11T17:50:36.104Z,99841.64
2019-01-11T17:53:05.111Z,99845.76
2019-01-11T17:55:37.117Z,99854.73
2019-01-11T17:58:06.437Z,99851.41
2019-01-11T18:00:36.178Z,99852.84
2019-01-11T18:03:06.804Z,99854.28
2019-01-11T18:05:37.967Z,99865.25
2019-01-11T18:08:07.165Z,99861.22
2019-01-11T18:10:36.359Z,99855.44
2019-01-11T18:13:05.444Z,99858.20
2019-01-11T18:15:34.559Z,99851.42
2019-01-11T18:18:03.948Z,99851.66
2019-01-11T18:20:33.389Z,99848.22
2019-01-11T18:23:06.833Z,99857.88
2019-01-11T18:25:33.243Z,99855.68
2019-01-11T18:28:02.424Z,99852.02
2019-01-11T18:30:31.559Z,99851.81
2019-01-11T18:33:00.684Z,99842.67
2019-01-11T18:35:30.074Z,99840.95
2019-01-11T18:37:59.082Z,99841.02
2019-01-11T18:40:28.145Z,99836.92
2019-01-11T18:42:57.182Z,99834.16
2019-01-11T18:45:29.058Z,99834.53
2019-01-11T18:47:58.225Z,99822.54
2019-01-11T18:50:27.264Z,99832.78
2019-01-11T18:52:56.305Z,99840.20
2019-01-11T18:55:26.589Z,99843.80
2019-01-11T18:57:55.646Z,99839.44
2019-01-11T19:00:25.053Z,99834.59
2019-01-11T19:02:54.077Z,99839.23
2019-01-11T19:05:23.178Z,99835.09
2019-01-11T19:07:52.504Z,99835.73
2019-01-11T19:10:21.704Z,99830.70
2019-01-11T19:12:50.753Z,99834.48
2019-01-11T19:15:26.061Z,99833.18
2019-01-11T19:17:56.575Z,99833.94
2019-01-11T19:20:30.326Z,99839.45
2019-01-11T19:23:01.117Z,99832.61
2019-01-11T19:25:30.185Z,99845.24
2019-01-11T19:28:02.324Z,99841.98
2019-01-11T19:30:31.631Z,99847.58
2019-01-11T19:33:00.902Z,99848.82
2019-01-11T19:35:29.977Z,99850.80
2019-01-11T19:37:59.196Z,99855.09
2019-01-11T19:40:29.765Z,99847.38
2019-01-11T19:42:59.073Z,99852.66
2019-01-11T19:45:28.219Z,99859.16
2019-01-11T19:47:57.352Z,99858.57
2019-01-11T19:50:26.563Z,99857.33
2019-01-11T19:52:55.609Z,99861.31
2019-01-11T19:55:25.123Z,99856.37
2019-01-11T19:57:54.719Z,99864.39
2019-01-11T20:00:28.869Z,99864.53
2019-01-11T20:02:59.469Z,99863.19
2019-01-11T20:05:28.551Z,99850.88
2019-01-11T20:07:57.668Z,99860.04
2019-01-11T20:10:31.717Z,99857.86
2019-01-11T20:13:02.289Z,99854.54
2019-01-11T20:15:31.516Z,99852.67
2019-01-11T20:18:00.632Z,99859.31
2019-01-11T20:20:30.026Z,99854.28
2019-01-11T20:23:02.440Z,99859.78
2019-01-11T20:25:29.838Z,99858.57
2019-01-11T20:27:59.269Z,99857.86
2019-01-11T20:30:28.789Z,99854.73
2019-01-11T20:32:57.975Z,99869.23
2019-01-11T20:35:27.141Z,99866.28
2019-01-11T20:37:56.185Z,99867.76
2019-01-11T20:40:25.191Z,99865.11
2019-01-11T20:42:54.262Z,99863.50
2019-01-11T20:45:23.343Z,99868.47
2019-01-11T20:47:52.422Z,99866.00
2019-01-11T20:50:25.866Z,99865.39
2019-01-11T20:52:56.911Z,99862.35
2019-01-11T20:55:26.022Z,99860.24
2019-01-11T20:57:55.541Z,99857.17
2019-01-11T21:00:27.305Z,99855.92
2019-01-11T21:02:57.742Z,99854.52
2019-01-11T21:05:27.138Z,99846.98
2019-01-11T21:07:56.196Z,99847.03
2019-01-11T21:10:25.209Z,99845.38
2019-01-11T21:12:54.290Z,99846.17
2019-01-11T21:15:23.453Z,99845.41
2019-01-11T21:17:53.874Z,99842.50
2019-01-11T21:20:22.941Z,99831.61
2019-01-11T21:22:51.991Z,99843.39
2019-01-11T21:25:21.081Z,99835.72
2019-01-11T21:27:50.097Z,99846.27
2019-01-11T21:30:29.797Z,99838.53
2019-01-11T21:32:58.849Z,99836.97
2019-01-11T21:35:27.879Z,99842.81
2019-01-11T21:37:57.245Z,99839.27
2019-01-11T21:40:28.178Z,99841.73
2019-01-11T21:42:57.482Z,99846.75
2019-01-11T21:45:26.690Z,99848.28
2019-01-11T21:47:57.507Z,99839.04
2019-01-11T21:50:29.157Z,99835.20
2019-01-11T21:52:59.548Z,99843.84
2019-01-11T21:55:28.835Z,99842.34
2019-01-11T21:57:58.147Z,99844.73
2019-01-11T22:00:45.097Z,99850.81
2019-01-11T22:03:19.397Z,99845.55
2019-01-11T22:05:48.720Z,99844.49
2019-01-11T22:08:17.752Z,99843.31
2019-01-11T22:10:46.924Z,99854.88
2019-01-11T22:13:17.649Z,99845.47
2019-01-11T22:15:46.675Z,99848.51
2019-01-11T22:18:15.765Z,99856.83
2019-01-11T22:20:45.144Z,99855.48
2019-01-11T22:23:14.210Z,99853.63
2019-01-11T22:25:43.616Z,99855.19
2019-01-11T22:28:12.894Z,99860.11
2019-01-11T22:30:43.672Z,99862.39
2019-01-11T22:33:12.718Z,99864.21
2019-01-11T22:35:42.374Z,99863.95
2019-01-11T22:38:11.913Z,99870.13
2019-01-11T22:40:40.948Z,99863.47
2019-01-11T22:43:10.757Z,99865.48
2019-01-11T22:45:39.979Z,99869.39
2019-01-11T22:48:09.505Z,99869.41
2019-01-11T22:50:40.073Z,99863.96
2019-01-11T22:53:09.376Z,99867.88
2019-01-11T22:55:38.849Z,99864.80
2019-01-11T22:58:08.942Z,99867.30
2019-01-11T23:00:59.915Z,99858.64
2019-01-11T23:03:34.975Z,99861.80
2019-01-11T23:06:29.361Z,99862.86
2019-01-11T23:08:58.452Z,99862.38
2019-01-11T23:12:09.372Z,99869.23
2019-01-11T23:14:38.438Z,99863.15
2019-01-11T23:17:23.545Z,99863.01
2019-01-11T23:19:52.574Z,99863.91
2019-01-11T23:22:21.661Z,99869.32
2019-01-11T23:24:50.781Z,99870.43
2019-01-11T23:27:19.884Z,99870.91
2019-01-11T23:29:51.307Z,99868.91
2019-01-11T23:32:20.447Z,99867.94
2019-01-11T23:34:49.731Z,99867.42
2019-01-11T23:37:18.804Z,99822.52
2019-01-11T23:39:48.562Z,99872.91
2019-01-11T23:42:17.714Z,99871.42
2019-01-11T23:44:46.762Z,99873.14
2019-01-11T23:47:15.778Z,99871.02
2019-01-11T23:49:44.859Z,99868.48
2019-01-11T23:52:13.926Z,99870.17
2019-01-11T23:54:42.938Z,99867.00
2019-01-11T23:57:12.074Z,99863.63
2019-01-11T23:59:41.128Z,99864.00
